sensor_id;sensor_type;location;lat;lon;timestamp;pressure;altitude;pressure_sealevel;temperature;humidity
23261;BME280;11799;47.740;-3.390;2023-04-20T00:01:57;101317.34;;;13.31;100.00
23261;BME280;11799;47.740;-3.390;2023-04-20T00:04:28;101320.72;;;13.33;100.00
23261;BME280;11799;47.740;-3.390;2023-04-20T00:06:54;101310.22;;;13.32;100.00
23261;BME280;11799;47.740;-3.390;2023-04-20T00:09:21;101318.06;;;13.33;100.00
23261;BME280;11799;47.740;-3.390;2023-04-20T00:11:47;101311.78;;;13.34;100.00
23261;BME280;11799;47.740;-3.390;2023-04-20T00:14:13;101312.63;;;13.35;100.00
23261;BME280;11799;47.740;-3.390;2023-04-20T00:16:39;101323.94;;;13.37;100.00
23261;BME280;11799;47.740;-3.390;2023-04-20T00:19:05;101316.13;;;13.35;100.00
23261;BME280;11799;47.740;-3.390;2023-04-20T00:21:32;101314.56;;;13.33;100.00
23261;BME280;11799;47.740;-3.390;2023-04-20T00:23:58;101326.72;;;13.35;100.00
23261;BME280;11799;47.740;-3.390;2023-04-20T00:26:23;101335.78;;;13.33;100.00
23261;BME280;11799;47.740;-3.390;2023-04-20T00:28:52;101329.50;;;13.34;100.00
23261;BME280;11799;47.740;-3.390;2023-04-20T00:31:18;101330.34;;;13.34;100.00
23261;BME280;11799;47.740;-3.390;2023-04-20T00:33:46;101327.69;;;13.34;100.00
23261;BME280;11799;47.740;-3.390;2023-04-20T00:36:12;101328.66;;;13.33;100.00
23261;BME280;11799;47.740;-3.390;2023-04-20T00:38:37;101329.50;;;13.34;100.00
23261;BME280;11799;47.740;-3.390;2023-04-20T00:41:03;101325.28;;;13.31;100.00
23261;BME280;11799;47.740;-3.390;2023-04-20T00:43:29;101325.28;;;13.31;100.00
23261;BME280;11799;47.740;-3.390;2023-04-20T00:45:55;101329.88;;;13.29;100.00
23261;BME280;11799;47.740;-3.390;2023-04-20T00:48:21;101328.34;;;13.27;100.00
23261;BME280;11799;47.740;-3.390;2023-04-20T00:50:48;101310.03;;;13.24;100.00
23261;BME280;11799;47.740;-3.390;2023-04-20T00:53:14;101320.88;;;13.20;100.00
23261;BME280;11799;47.740;-3.390;2023-04-20T00:55:42;101311.38;;;13.18;100.00
23261;BME280;11799;47.740;-3.390;2023-04-20T00:58:10;101313.31;;;13.16;100.00
23261;BME280;11799;47.740;-3.390;2023-04-20T01:00:37;101308.94;;;13.15;100.00
23261;BME280;11799;47.740;-3.390;2023-04-20T01:03:04;101314.34;;;13.13;100.00
23261;BME280;11799;47.740;-3.390;2023-04-20T01:05:31;101312.69;;;13.12;100.00
23261;BME280;11799;47.740;-3.390;2023-04-20T01:07:57;101316.53;;;13.08;100.00
23261;BME280;11799;47.740;-3.390;2023-04-20T01:10:22;101321.13;;;13.06;100.00
23261;BME280;11799;47.740;-3.390;2023-04-20T01:12:48;101316.91;;;13.04;100.00
23261;BME280;11799;47.740;-3.390;2023-04-20T01:15:13;101308.22;;;13.02;100.00
23261;BME280;11799;47.740;-3.390;2023-04-20T01:17:39;101310.88;;;13.02;100.00
23261;BME280;11799;47.740;-3.390;2023-04-20T01:20:07;101310.16;;;13.00;100.00
23261;BME280;11799;47.740;-3.390;2023-04-20T01:22:41;101311.25;;;12.97;100.00
23261;BME280;11799;47.740;-3.390;2023-04-20T01:25:07;101308.97;;;12.93;100.00
23261;BME280;11799;47.740;-3.390;2023-04-20T01:27:33;101311.72;;;12.91;100.00
23261;BME280;11799;47.740;-3.390;2023-04-20T01:30:00;101310.16;;;12.88;100.00
23261;BME280;11799;47.740;-3.390;2023-04-20T01:32:25;101312.22;;;12.85;100.00
23261;BME280;11799;47.740;-3.390;2023-04-20T01:34:51;101312.22;;;12.85;100.00
23261;BME280;11799;47.740;-3.390;2023-04-20T01:37:16;101313.31;;;12.82;100.00
23261;BME280;11799;47.740;-3.390;2023-04-20T01:39:42;101313.56;;;12.79;100.00
23261;BME280;11799;47.740;-3.390;2023-04-20T01:42:08;101314.28;;;12.81;100.00
23261;BME280;11799;47.740;-3.390;2023-04-20T01:44:34;101303.91;;;12.78;100.00
23261;BME280;11799;47.740;-3.390;2023-04-20T01:47:00;101307.78;;;12.74;100.00
23261;BME280;11799;47.740;-3.390;2023-04-20T01:49:25;101310.66;;;12.71;100.00
23261;BME280;11799;47.740;-3.390;2023-04-20T01:51:51;101308.28;;;12.68;100.00
23261;BME280;11799;47.740;-3.390;2023-04-20T01:54:16;101309.13;;;12.69;100.00
23261;BME280;11799;47.740;-3.390;2023-04-20T01:56:42;101303.94;;;12.67;100.00
23261;BME280;11799;47.740;-3.390;2023-04-20T01:59:09;101298.03;;;12.64;100.00
23261;BME280;11799;47.740;-3.390;2023-04-20T02:01:34;101299.84;;;12.63;100.00
23261;BME280;11799;47.740;-3.390;2023-04-20T02:04:00;101299.25;;;12.60;100.00
23261;BME280;11799;47.740;-3.390;2023-04-20T02:06:25;101292.25;;;12.59;100.00
23261;BME280;11799;47.740;-3.390;2023-04-20T02:08:51;101294.91;;;12.59;100.00
23261;BME280;11799;47.740;-3.390;2023-04-20T02:11:17;101297.06;;;12.53;100.00
23261;BME280;11799;47.740;-3.390;2023-04-20T02:13:42;101299.72;;;12.53;100.00
23261;BME280;11799;47.740;-3.390;2023-04-20T02:16:08;101311.53;;;12.49;100.00
23261;BME280;11799;47.740;-3.390;2023-04-20T02:18:34;101309.97;;;12.47;100.00
23261;BME280;11799;47.740;-3.390;2023-04-20T02:24:46;101305.97;;;12.41;100.00
23261;BME280;11799;47.740;-3.390;2023-04-20T02:27:13;101303.81;;;12.35;100.00
23261;BME280;11799;47.740;-3.390;2023-04-20T02:29:38;101306.44;;;12.35;100.00
23261;BME280;11799;47.740;-3.390;2023-04-20T02:32:04;101306.69;;;12.32;100.00
23261;BME280;11799;47.740;-3.390;2023-04-20T02:34:30;101307.53;;;12.33;100.00
23261;BME280;11799;47.740;-3.390;2023-04-20T02:36:55;101314.03;;;12.29;100.00
23261;BME280;11799;47.740;-3.390;2023-04-20T02:39:21;101316.66;;;12.29;100.00
23261;BME280;11799;47.740;-3.390;2023-04-20T02:41:46;101317.88;;;12.24;100.00
23261;BME280;11799;47.740;-3.390;2023-04-20T02:44:12;101312.69;;;12.23;100.00
23261;BME280;11799;47.740;-3.390;2023-04-20T02:46:37;101318.09;;;12.21;100.00
23261;BME280;11799;47.740;-3.390;2023-04-20T02:49:03;101317.38;;;12.19;100.00
23261;BME280;11799;47.740;-3.390;2023-04-20T02:51:31;101308.59;;;12.19;100.00
23261;BME280;11799;47.740;-3.390;2023-04-20T02:53:57;101317.59;;;12.16;100.00
23261;BME280;11799;47.740;-3.390;2023-04-20T02:56:27;101316.75;;;12.16;100.00
23261;BME280;11799;47.740;-3.390;2023-04-20T02:58:55;101320.63;;;12.12;100.00
23261;BME280;11799;47.740;-3.390;2023-04-20T03:01:38;101322.56;;;12.10;100.00
23261;BME280;11799;47.740;-3.390;2023-04-20T03:04:16;101319.19;;;12.08;100.00
23261;BME280;11799;47.740;-3.390;2023-04-20T03:07:17;101321.34;;;12.03;100.00
23261;BME280;11799;47.740;-3.390;2023-04-20T03:09:45;101324.94;;;12.02;100.00
23261;BME280;11799;47.740;-3.390;2023-04-20T03:12:29;101318.91;;;12.00;100.00
23261;BME280;11799;47.740;-3.390;2023-04-20T03:15:15;101315.66;;;11.96;100.00
23261;BME280;11799;47.740;-3.390;2023-04-20T03:18:00;101318.53;;;11.93;100.00
23261;BME280;11799;47.740;-3.390;2023-04-20T03:20:26;101316.84;;;11.92;100.00
23261;BME280;11799;47.740;-3.390;2023-04-20T03:22:52;101320.69;;;11.88;100.00
23261;BME280;11799;47.740;-3.390;2023-04-20T03:25:21;101318.25;;;11.85;100.00
23261;BME280;11799;47.740;-3.390;2023-04-20T03:27:57;101315.72;;;11.83;100.00
23261;BME280;11799;47.740;-3.390;2023-04-20T03:30:23;101306.09;;;11.82;100.00
23261;BME280;11799;47.740;-3.390;2023-04-20T03:32:55;101305.50;;;11.79;100.00
23261;BME280;11799;47.740;-3.390;2023-04-20T03:35:21;101316.28;;;11.76;100.00
23261;BME280;11799;47.740;-3.390;2023-04-20T03:37:46;101312.06;;;11.73;100.00
23261;BME280;11799;47.740;-3.390;2023-04-20T03:40:12;101313.84;;;11.73;100.00
23261;BME280;11799;47.740;-3.390;2023-04-20T03:42:38;101306.16;;;11.70;100.00
23261;BME280;11799;47.740;-3.390;2023-04-20T03:45:05;101307.09;;;11.69;100.00
23261;BME280;11799;47.740;-3.390;2023-04-20T03:47:31;101303.00;;;11.65;100.00
23261;BME280;11799;47.740;-3.390;2023-04-20T03:49:56;101300.56;;;11.62;100.00
23261;BME280;11799;47.740;-3.390;2023-04-20T03:52:22;101305.13;;;11.59;100.00
23261;BME280;11799;47.740;-3.390;2023-04-20T03:54:48;101297.31;;;11.58;100.00
23261;BME280;11799;47.740;-3.390;2023-04-20T03:57:15;101300.91;;;11.57;100.00
23261;BME280;11799;47.740;-3.390;2023-04-20T03:59:41;101301.03;;;11.55;100.00
23261;BME280;11799;47.740;-3.390;2023-04-20T04:02:09;101308.28;;;11.53;100.00
23261;BME280;11799;47.740;-3.390;2023-04-20T04:04:39;101307.53;;;11.51;100.00
23261;BME280;11799;47.740;-3.390;2023-04-20T04:07:05;101305.00;;;11.50;100.00
23261;BME280;11799;47.740;-3.390;2023-04-20T04:09:31;101304.38;;;11.46;100.00
23261;BME280;11799;47.740;-3.390;2023-04-20T04:11:57;101298.38;;;11.44;100.00
23261;BME280;11799;47.740;-3.390;2023-04-20T04:14:23;101293.31;;;11.41;100.00
23261;BME280;11799;47.740;-3.390;2023-04-20T04:16:48;101303.03;;;11.41;100.00
23261;BME280;11799;47.740;-3.390;2023-04-20T04:19:14;101300.41;;;11.41;100.00
23261;BME280;11799;47.740;-3.390;2023-04-20T04:21:42;101304.22;;;11.37;100.00
23261;BME280;11799;47.740;-3.390;2023-04-20T04:24:08;101304.44;;;11.34;100.00
23261;BME280;11799;47.740;-3.390;2023-04-20T04:26:39;101300.84;;;11.35;100.00
23261;BME280;11799;47.740;-3.390;2023-04-20T04:29:05;101303.59;;;11.33;100.00
23261;BME280;11799;47.740;-3.390;2023-04-20T04:31:32;101307.31;;;11.31;100.00
23261;BME280;11799;47.740;-3.390;2023-04-20T04:34:03;101299.50;;;11.29;100.00
23261;BME280;11799;47.740;-3.390;2023-04-20T04:36:35;101314.50;;;11.29;100.00
23261;BME280;11799;47.740;-3.390;2023-04-20T04:39:02;101300.56;;;11.27;100.00
23261;BME280;11799;47.740;-3.390;2023-04-20T04:41:28;101302.56;;;11.23;100.00
23261;BME280;11799;47.740;-3.390;2023-04-20T04:44:02;101292.97;;;11.22;100.00
23261;BME280;11799;47.740;-3.390;2023-04-20T04:46:30;101300.16;;;11.20;100.00
23261;BME280;11799;47.740;-3.390;2023-04-20T04:48:56;101302.19;;;11.16;100.00
23261;BME280;11799;47.740;-3.390;2023-04-20T04:51:25;101297.97;;;11.14;100.00
23261;BME280;11799;47.740;-3.390;2023-04-20T04:53:51;101313.94;;;11.12;100.00
23261;BME280;11799;47.740;-3.390;2023-04-20T04:56:16;101307.16;;;11.08;100.00
23261;BME280;11799;47.740;-3.390;2023-04-20T04:58:43;101305.47;;;11.07;100.00
23261;BME280;11799;47.740;-3.390;2023-04-20T05:01:10;101315.31;;;11.05;100.00
23261;BME280;11799;47.740;-3.390;2023-04-20T05:03:36;101315.31;;;11.05;100.00
23261;BME280;11799;47.740;-3.390;2023-04-20T05:06:01;101315.53;;;11.02;100.00
23261;BME280;11799;47.740;-3.390;2023-04-20T05:08:27;101309.53;;;11.00;100.00
23261;BME280;11799;47.740;-3.390;2023-04-20T05:10:52;101304.34;;;10.99;100.00
23261;BME280;11799;47.740;-3.390;2023-04-20T05:13:18;101306.59;;;10.92;100.00
23261;BME280;11799;47.740;-3.390;2023-04-20T05:15:44;101316.34;;;10.91;100.00
23261;BME280;11799;47.740;-3.390;2023-04-20T05:18:09;101312.94;;;10.89;100.00
23261;BME280;11799;47.740;-3.390;2023-04-20T05:20:35;101310.41;;;10.88;100.00
23261;BME280;11799;47.740;-3.390;2023-04-20T05:23:00;101316.75;;;10.85;100.00
23261;BME280;11799;47.740;-3.390;2023-04-20T05:25:26;101312.31;;;10.86;100.00
23261;BME280;11799;47.740;-3.390;2023-04-20T05:27:51;101312.44;;;10.84;100.00
23261;BME280;11799;47.740;-3.390;2023-04-20T05:30:17;101318.78;;;10.82;100.00
23261;BME280;11799;47.740;-3.390;2023-04-20T05:32:42;101327.56;;;10.82;100.00
23261;BME280;11799;47.740;-3.390;2023-04-20T05:35:08;101325.75;;;10.83;100.00
23261;BME280;11799;47.740;-3.390;2023-04-20T05:37:34;101321.63;;;10.79;100.00
23261;BME280;11799;47.740;-3.390;2023-04-20T05:40:00;101329.25;;;10.83;100.00
23261;BME280;11799;47.740;-3.390;2023-04-20T05:42:25;101332.84;;;10.82;100.00
23261;BME280;11799;47.740;-3.390;2023-04-20T05:44:51;101331.16;;;10.81;100.00
23261;BME280;11799;47.740;-3.390;2023-04-20T05:47:16;101329.34;;;10.82;100.00
23261;BME280;11799;47.740;-3.390;2023-04-20T05:49:42;101331.25;;;10.80;100.00
23261;BME280;11799;47.740;-3.390;2023-04-20T05:52:07;101335.47;;;10.82;100.00
23261;BME280;11799;47.740;-3.390;2023-04-20T05:54:33;101340.75;;;10.82;100.00
23261;BME280;11799;47.740;-3.390;2023-04-20T05:56:58;101340.75;;;10.82;100.00
23261;BME280;11799;47.740;-3.390;2023-04-20T05:59:25;101334.00;;;10.78;100.00
23261;BME280;11799;47.740;-3.390;2023-04-20T06:01:51;101340.97;;;10.79;100.00
23261;BME280;11799;47.740;-3.390;2023-04-20T06:04:16;101332.00;;;10.82;100.00
23261;BME280;11799;47.740;-3.390;2023-04-20T06:06:43;101340.75;;;10.82;100.00
23261;BME280;11799;47.740;-3.390;2023-04-20T06:09:08;101337.16;;;10.83;100.00
23261;BME280;11799;47.740;-3.390;2023-04-20T06:11:34;101333.69;;;10.83;100.00
23261;BME280;11799;47.740;-3.390;2023-04-20T06:14:00;101332.09;;;10.80;100.00
23261;BME280;11799;47.740;-3.390;2023-04-20T06:16:25;101341.59;;;10.83;100.00
23261;BME280;11799;47.740;-3.390;2023-04-20T06:18:51;101339.81;;;10.83;100.00
23261;BME280;11799;47.740;-3.390;2023-04-20T06:21:16;101334.31;;;10.86;100.00
23261;BME280;11799;47.740;-3.390;2023-04-20T06:23:42;101339.59;;;10.86;100.00
23261;BME280;11799;47.740;-3.390;2023-04-20T06:26:11;101336.84;;;10.88;100.00
23261;BME280;11799;47.740;-3.390;2023-04-20T06:28:37;101334.84;;;10.91;100.00
23261;BME280;11799;47.740;-3.390;2023-04-20T06:31:03;101347.09;;;10.93;100.00
23261;BME280;11799;47.740;-3.390;2023-04-20T06:33:29;101341.69;;;10.94;100.00
23261;BME280;11799;47.740;-3.390;2023-04-20T06:35:55;101334.38;;;10.98;100.00
23261;BME280;11799;47.740;-3.390;2023-04-20T06:38:21;101344.13;;;10.97;100.00
23261;BME280;11799;47.740;-3.390;2023-04-20T06:40:48;101342.19;;;10.99;100.00
23261;BME280;11799;47.740;-3.390;2023-04-20T06:43:13;101347.38;;;11.01;100.00
23261;BME280;11799;47.740;-3.390;2023-04-20T06:45:39;101353.38;;;11.03;100.00
23261;BME280;11799;47.740;-3.390;2023-04-20T06:48:05;101352.44;;;11.04;100.00
23261;BME280;11799;47.740;-3.390;2023-04-20T06:50:31;101353.16;;;11.06;100.00
23261;BME280;11799;47.740;-3.390;2023-04-20T06:52:56;101355.69;;;11.07;100.00
23261;BME280;11799;47.740;-3.390;2023-04-20T06:55:22;101356.53;;;11.08;100.00
23261;BME280;11799;47.740;-3.390;2023-04-20T06:57:47;101361.63;;;11.11;100.00
23261;BME280;11799;47.740;-3.390;2023-04-20T07:00:13;101360.53;;;11.13;100.00
23261;BME280;11799;47.740;-3.390;2023-04-20T07:02:49;101368.16;;;11.18;100.00
23261;BME280;11799;47.740;-3.390;2023-04-20T07:05:15;101369.84;;;11.19;100.00
23261;BME280;11799;47.740;-3.390;2023-04-20T07:07:42;101359.91;;;11.22;100.00
23261;BME280;11799;47.740;-3.390;2023-04-20T07:10:09;101365.69;;;11.28;100.00
23261;BME280;11799;47.740;-3.390;2023-04-20T07:12:35;101354.69;;;11.34;100.00
23261;BME280;11799;47.740;-3.390;2023-04-20T07:15:06;101355.94;;;11.41;100.00
23261;BME280;11799;47.740;-3.390;2023-04-20T07:17:32;101345.84;;;11.46;100.00
23261;BME280;11799;47.740;-3.390;2023-04-20T07:19:58;101343.63;;;11.52;100.00
23261;BME280;11799;47.740;-3.390;2023-04-20T07:22:30;101334.34;;;11.58;100.00
23261;BME280;11799;47.740;-3.390;2023-04-20T07:24:56;101339.81;;;11.68;100.00
23261;BME280;11799;47.740;-3.390;2023-04-20T07:27:21;101335.34;;;11.81;100.00
23261;BME280;11799;47.740;-3.390;2023-04-20T07:29:47;101330.94;;;11.93;100.00
23261;BME280;11799;47.740;-3.390;2023-04-20T07:32:13;101337.09;;;12.04;99.65
23261;BME280;11799;47.740;-3.390;2023-04-20T07:34:39;101343.13;;;12.17;96.92
23261;BME280;11799;47.740;-3.390;2023-04-20T07:37:04;101350.88;;;12.32;97.22
23261;BME280;11799;47.740;-3.390;2023-04-20T07:39:30;101348.72;;;12.48;89.72
23261;BME280;11799;47.740;-3.390;2023-04-20T07:41:55;101344.16;;;12.61;91.08
23261;BME280;11799;47.740;-3.390;2023-04-20T07:44:21;101350.16;;;12.74;94.49
23261;BME280;11799;47.740;-3.390;2023-04-20T07:46:47;101351.25;;;12.94;91.16
23261;BME280;11799;47.740;-3.390;2023-04-20T07:49:14;101353.91;;;13.05;87.03
23261;BME280;11799;47.740;-3.390;2023-04-20T07:51:40;101348.50;;;13.18;88.55
23261;BME280;11799;47.740;-3.390;2023-04-20T07:54:05;101355.56;;;13.29;89.32
23261;BME280;11799;47.740;-3.390;2023-04-20T07:56:32;101355.53;;;13.40;83.83
23261;BME280;11799;47.740;-3.390;2023-04-20T07:58:57;101349.50;;;13.49;84.27
23261;BME280;11799;47.740;-3.390;2023-04-20T08:01:23;101345.63;;;13.53;79.40
23261;BME280;11799;47.740;-3.390;2023-04-20T08:03:51;101356.44;;;13.61;79.75
23261;BME280;11799;47.740;-3.390;2023-04-20T08:06:19;101356.53;;;13.71;82.24
23261;BME280;11799;47.740;-3.390;2023-04-20T08:08:44;101356.63;;;13.80;77.43
23261;BME280;11799;47.740;-3.390;2023-04-20T08:11:10;101357.53;;;13.91;82.65
23261;BME280;11799;47.740;-3.390;2023-04-20T08:13:37;101368.22;;;14.00;79.87
23261;BME280;11799;47.740;-3.390;2023-04-20T08:16:02;101363.38;;;14.05;78.12
23261;BME280;11799;47.740;-3.390;2023-04-20T08:18:28;101370.56;;;14.14;77.36
23261;BME280;11799;47.740;-3.390;2023-04-20T08:20:56;101364.50;;;14.24;73.13
23261;BME280;11799;47.740;-3.390;2023-04-20T08:23:22;101359.75;;;14.27;74.16
23261;BME280;11799;47.740;-3.390;2023-04-20T08:25:55;101358.00;;;14.37;71.78
23261;BME280;11799;47.740;-3.390;2023-04-20T08:28:22;101360.31;;;14.42;69.24
23261;BME280;11799;47.740;-3.390;2023-04-20T08:30:48;101366.63;;;14.50;68.03
23261;BME280;11799;47.740;-3.390;2023-04-20T08:33:13;101368.88;;;14.55;66.24
23261;BME280;11799;47.740;-3.390;2023-04-20T08:35:39;101376.59;;;14.58;67.94
23261;BME280;11799;47.740;-3.390;2023-04-20T08:38:04;101372.84;;;14.61;70.40
23261;BME280;11799;47.740;-3.390;2023-04-20T08:40:30;101361.22;;;14.62;63.54
23261;BME280;11799;47.740;-3.390;2023-04-20T08:42:56;101360.97;;;14.65;64.90
23261;BME280;11799;47.740;-3.390;2023-04-20T08:45:24;101368.69;;;14.68;58.21
23261;BME280;11799;47.740;-3.390;2023-04-20T08:47:51;101366.72;;;14.70;55.80
23261;BME280;11799;47.740;-3.390;2023-04-20T08:50:18;101363.53;;;14.76;52.10
23261;BME280;11799;47.740;-3.390;2023-04-20T08:52:44;101354.47;;;14.78;53.47
23261;BME280;11799;47.740;-3.390;2023-04-20T08:55:09;101360.34;;;14.82;52.10
23261;BME280;11799;47.740;-3.390;2023-04-20T08:57:35;101363.72;;;14.84;50.35
23261;BME280;11799;47.740;-3.390;2023-04-20T09:00:03;101353.22;;;14.82;48.69
23261;BME280;11799;47.740;-3.390;2023-04-20T09:02:29;101348.47;;;14.86;49.02
23261;BME280;11799;47.740;-3.390;2023-04-20T09:05:02;101341.59;;;14.83;48.78
23261;BME280;11799;47.740;-3.390;2023-04-20T09:07:29;101345.81;;;14.86;50.39
23261;BME280;11799;47.740;-3.390;2023-04-20T09:09:57;101345.09;;;14.84;46.93
23261;BME280;11799;47.740;-3.390;2023-04-20T09:12:23;101343.03;;;14.88;46.20
23261;BME280;11799;47.740;-3.390;2023-04-20T09:14:49;101344.72;;;14.89;48.17
23261;BME280;11799;47.740;-3.390;2023-04-20T09:17:15;101342.34;;;14.95;46.34
23261;BME280;11799;47.740;-3.390;2023-04-20T09:19:51;101344.31;;;15.03;49.29
23261;BME280;11799;47.740;-3.390;2023-04-20T09:22:28;101343.78;;;15.09;47.89
23261;BME280;11799;47.740;-3.390;2023-04-20T09:24:54;101357.63;;;15.12;49.09
23261;BME280;11799;47.740;-3.390;2023-04-20T09:27:20;101350.09;;;15.17;46.01
23261;BME280;11799;47.740;-3.390;2023-04-20T09:30:07;101355.00;;;15.22;44.35
23261;BME280;11799;47.740;-3.390;2023-04-20T09:32:34;101344.81;;;15.27;46.78
23261;BME280;11799;47.740;-3.390;2023-04-20T09:35:00;101342.56;;;15.32;47.56
23261;BME280;11799;47.740;-3.390;2023-04-20T09:37:25;101332.22;;;15.39;44.92
23261;BME280;11799;47.740;-3.390;2023-04-20T09:39:54;101335.19;;;15.45;44.02
23261;BME280;11799;47.740;-3.390;2023-04-20T09:42:26;101333.66;;;15.52;45.24
23261;BME280;11799;47.740;-3.390;2023-04-20T09:44:53;101317.41;;;15.56;42.92
23261;BME280;11799;47.740;-3.390;2023-04-20T09:47:21;101326.38;;;15.64;43.94
23261;BME280;11799;47.740;-3.390;2023-04-20T09:49:46;101317.81;;;15.70;41.97
23261;BME280;11799;47.740;-3.390;2023-04-20T09:52:16;101321.47;;;15.89;43.17
23261;BME280;11799;47.740;-3.390;2023-04-20T09:54:43;101320.84;;;16.24;41.38
23261;BME280;11799;47.740;-3.390;2023-04-20T09:57:08;101320.25;;;16.39;40.48
23261;BME280;11799;47.740;-3.390;2023-04-20T09:59:34;101307.78;;;16.30;40.09
23261;BME280;11799;47.740;-3.390;2023-04-20T10:02:00;101299.78;;;16.30;42.34
23261;BME280;11799;47.740;-3.390;2023-04-20T10:04:26;101295.63;;;16.65;41.41
23261;BME280;11799;47.740;-3.390;2023-04-20T10:06:53;101292.53;;;16.69;41.98
23261;BME280;11799;47.740;-3.390;2023-04-20T10:09:21;101296.88;;;16.61;40.47
23261;BME280;11799;47.740;-3.390;2023-04-20T10:11:47;101283.28;;;16.54;39.66
23261;BME280;11799;47.740;-3.390;2023-04-20T10:14:18;101299.00;;;16.57;41.74
23261;BME280;11799;47.740;-3.390;2023-04-20T10:16:44;101280.78;;;16.52;42.19
23261;BME280;11799;47.740;-3.390;2023-04-20T10:19:11;101284.13;;;16.55;42.99
23261;BME280;11799;47.740;-3.390;2023-04-20T10:21:45;101287.09;;;16.51;38.44
23261;BME280;11799;47.740;-3.390;2023-04-20T10:24:11;101274.06;;;16.48;41.30
23261;BME280;11799;47.740;-3.390;2023-04-20T10:26:43;101261.81;;;16.56;40.84
23261;BME280;11799;47.740;-3.390;2023-04-20T10:29:21;101262.56;;;16.48;38.21
23261;BME280;11799;47.740;-3.390;2023-04-20T10:31:47;101271.81;;;16.44;37.72
23261;BME280;11799;47.740;-3.390;2023-04-20T10:34:13;101288.66;;;16.44;38.98
23261;BME280;11799;47.740;-3.390;2023-04-20T10:36:38;101274.09;;;16.39;39.42
23261;BME280;11799;47.740;-3.390;2023-04-20T10:39:14;101266.94;;;16.39;39.24
23261;BME280;11799;47.740;-3.390;2023-04-20T10:41:57;101257.13;;;16.40;42.05
23261;BME280;11799;47.740;-3.390;2023-04-20T10:44:23;101273.78;;;16.42;40.08
23261;BME280;11799;47.740;-3.390;2023-04-20T10:46:49;101276.06;;;16.37;35.77
23261;BME280;11799;47.740;-3.390;2023-04-20T10:49:15;101267.50;;;16.33;38.14
23261;BME280;11799;47.740;-3.390;2023-04-20T10:51:46;101251.22;;;16.36;37.45
23261;BME280;11799;47.740;-3.390;2023-04-20T10:54:12;101257.25;;;16.38;38.84
23261;BME280;11799;47.740;-3.390;2023-04-20T10:56:42;101256.66;;;16.44;42.64
23261;BME280;11799;47.740;-3.390;2023-04-20T10:59:09;101244.59;;;16.50;38.19
23261;BME280;11799;47.740;-3.390;2023-04-20T11:01:36;101249.91;;;16.50;38.08
23261;BME280;11799;47.740;-3.390;2023-04-20T11:04:02;101240.78;;;16.52;40.54
23261;BME280;11799;47.740;-3.390;2023-04-20T11:06:29;101239.50;;;16.57;40.52
23261;BME280;11799;47.740;-3.390;2023-04-20T11:08:56;101237.53;;;16.59;35.97
23261;BME280;11799;47.740;-3.390;2023-04-20T11:11:26;101240.88;;;16.61;36.34
23261;BME280;11799;47.740;-3.390;2023-04-20T11:14:04;101246.50;;;16.58;36.37
23261;BME280;11799;47.740;-3.390;2023-04-20T11:16:31;101237.25;;;16.62;38.12
23261;BME280;11799;47.740;-3.390;2023-04-20T11:18:56;101238.91;;;16.63;36.98
23261;BME280;11799;47.740;-3.390;2023-04-20T11:21:22;101245.38;;;16.60;40.17
23261;BME280;11799;47.740;-3.390;2023-04-20T11:23:48;101251.00;;;16.67;38.49
23261;BME280;11799;47.740;-3.390;2023-04-20T11:26:15;101248.19;;;16.68;39.32
23261;BME280;11799;47.740;-3.390;2023-04-20T11:28:51;101240.47;;;16.65;37.04
23261;BME280;11799;47.740;-3.390;2023-04-20T11:31:17;101254.22;;;16.70;38.21
23261;BME280;11799;47.740;-3.390;2023-04-20T11:33:43;101248.59;;;16.73;38.10
23261;BME280;11799;47.740;-3.390;2023-04-20T11:36:24;101241.94;;;16.77;36.37
23261;BME280;11799;47.740;-3.390;2023-04-20T11:38:51;101251.09;;;16.75;36.21
23261;BME280;11799;47.740;-3.390;2023-04-20T11:41:17;101242.47;;;16.81;39.49
23261;BME280;11799;47.740;-3.390;2023-04-20T11:43:43;101234.72;;;16.88;37.50
23261;BME280;11799;47.740;-3.390;2023-04-20T11:46:14;101233.72;;;16.89;37.21
23261;BME280;11799;47.740;-3.390;2023-04-20T11:48:41;101243.50;;;16.98;37.16
23261;BME280;11799;47.740;-3.390;2023-04-20T11:51:07;101244.50;;;16.97;36.29
23261;BME280;11799;47.740;-3.390;2023-04-20T11:53:32;101244.19;;;17.00;38.24
23261;BME280;11799;47.740;-3.390;2023-04-20T11:55:59;101240.22;;;17.04;37.22
23261;BME280;11799;47.740;-3.390;2023-04-20T11:58:24;101232.47;;;17.10;37.93
23261;BME280;11799;47.740;-3.390;2023-04-20T12:00:50;101229.03;;;17.18;36.20
23261;BME280;11799;47.740;-3.390;2023-04-20T12:03:16;101224.69;;;17.17;38.11
23261;BME280;11799;47.740;-3.390;2023-04-20T12:05:41;101219.88;;;17.21;36.09
23261;BME280;11799;47.740;-3.390;2023-04-20T12:08:08;101217.59;;;17.26;35.92
23261;BME280;11799;47.740;-3.390;2023-04-20T12:10:33;101220.16;;;17.35;34.82
23261;BME280;11799;47.740;-3.390;2023-04-20T12:12:59;101217.25;;;17.46;36.26
23261;BME280;11799;47.740;-3.390;2023-04-20T12:15:26;101215.66;;;17.54;36.02
23261;BME280;11799;47.740;-3.390;2023-04-20T12:17:51;101215.03;;;17.60;38.13
23261;BME280;11799;47.740;-3.390;2023-04-20T12:20:18;101211.91;;;17.64;37.04
23261;BME280;11799;47.740;-3.390;2023-04-20T12:22:43;101211.84;;;17.74;35.86
23261;BME280;11799;47.740;-3.390;2023-04-20T12:25:09;101215.47;;;17.91;38.24
23261;BME280;11799;47.740;-3.390;2023-04-20T12:27:35;101206.09;;;17.95;36.86
23261;BME280;11799;47.740;-3.390;2023-04-20T12:30:00;101209.19;;;18.08;37.17
23261;BME280;11799;47.740;-3.390;2023-04-20T12:32:26;101195.88;;;18.16;39.65
23261;BME280;11799;47.740;-3.390;2023-04-20T12:34:52;101200.91;;;18.19;38.24
23261;BME280;11799;47.740;-3.390;2023-04-20T12:37:17;101206.50;;;18.34;35.17